createdAt,value
2023-06-25T00:00:39.603Z,97039.28
2023-06-25T00:03:06.450Z,97047.19
2023-06-25T00:05:33.229Z,97046.72
2023-06-25T00:07:59.884Z,97045.38
2023-06-25T00:10:26.480Z,97045.97
2023-06-25T00:12:53.073Z,97058.53
2023-06-25T00:15:19.669Z,97045.66
2023-06-25T00:17:46.334Z,97050.94
2023-06-25T00:20:13.005Z,97043.88
2023-06-25T00:22:39.673Z,97046.09
2023-06-25T00:25:06.818Z,97051.56
2023-06-25T00:27:33.466Z,97053.81
2023-06-25T00:30:00.173Z,97043.19
2023-06-25T00:32:26.951Z,97042.72
2023-06-25T00:34:53.626Z,97041.09
2023-06-25T00:37:20.262Z,97044.91
2023-06-25T00:39:47.696Z,97041.09
2023-06-25T00:42:14.579Z,97040.28
2023-06-25T00:44:41.266Z,97045.22
2023-06-25T00:47:13.890Z,97050.44
2023-06-25T00:49:41.210Z,97045.78
2023-06-25T00:52:08.056Z,97050.19
2023-06-25T00:54:34.700Z,97046.94
2023-06-25T00:57:01.347Z,97047.25
2023-06-25T00:59:28.134Z,97050.22
2023-06-25T01:01:56.705Z,97048.09
2023-06-25T01:04:25.552Z,97051.63
2023-06-25T01:06:52.463Z,97048.03
2023-06-25T01:09:19.401Z,97046.44
2023-06-25T01:11:59.816Z,97044.81
2023-06-25T01:14:26.434Z,97043.75
2023-06-25T01:16:53.038Z,97049.25
2023-06-25T01:19:19.789Z,97042.69
2023-06-25T01:21:47.016Z,97048.16
2023-06-25T01:24:13.817Z,97045.72
2023-06-25T01:26:40.414Z,97032.31
2023-06-25T01:29:06.997Z,97029.63
2023-06-25T01:31:33.657Z,97031.53
2023-06-25T01:34:00.283Z,97035.94
2023-06-25T01:36:26.921Z,97038.94
2023-06-25T01:38:53.568Z,97038.69
2023-06-25T01:41:20.177Z,97040.06
2023-06-25T01:43:46.766Z,97032.16
2023-06-25T01:46:13.464Z,97033.81
2023-06-25T01:48:40.141Z,97033.53
2023-06-25T01:51:06.780Z,97036.28
2023-06-25T01:53:33.493Z,97045.63
2023-06-25T01:56:00.151Z,97039.59
2023-06-25T01:58:26.751Z,97038.53
2023-06-25T02:00:53.333Z,97035.28
2023-06-25T02:03:20.102Z,97040.22
2023-06-25T02:05:46.802Z,97032.03
2023-06-25T02:08:13.415Z,97034.25
2023-06-25T02:10:40.085Z,97032.34
2023-06-25T02:13:06.732Z,97031.53
2023-06-25T02:15:33.366Z,97032.09
2023-06-25T02:17:59.998Z,97023.91
2023-06-25T02:20:26.627Z,97031.56
2023-06-25T02:22:53.276Z,97029.94
2023-06-25T02:25:19.868Z,97024.50
2023-06-25T02:27:46.444Z,97029.41
2023-06-25T02:30:13.514Z,97031.03
2023-06-25T02:32:40.221Z,97022.84
2023-06-25T02:35:06.927Z,97027.75
2023-06-25T02:37:33.513Z,97022.31
2023-06-25T02:40:00.193Z,97021.53
2023-06-25T02:42:26.814Z,97021.78
2023-06-25T02:44:53.402Z,97021.25
2023-06-25T02:47:20.034Z,97023.97
2023-06-25T02:49:46.608Z,97029.19
2023-06-25T02:52:13.212Z,97027.81
2023-06-25T02:54:39.793Z,97027.84
2023-06-25T02:57:06.377Z,97033.53
2023-06-25T02:59:33.064Z,97035.47
2023-06-25T03:01:59.690Z,97033.28
2023-06-25T03:04:26.295Z,97036.03
2023-06-25T03:06:53.009Z,97044.44
2023-06-25T03:09:19.665Z,97040.94
2023-06-25T03:11:46.425Z,97036.84
2023-06-25T03:14:21.926Z,97049.38
2023-06-25T03:16:59.662Z,97040.13
2023-06-25T03:19:26.292Z,97039.28
2023-06-25T03:21:52.921Z,97040.41
2023-06-25T03:24:19.548Z,97050.72
2023-06-25T03:26:46.198Z,97039.88
2023-06-25T03:29:12.872Z,97044.19
2023-06-25T03:31:39.518Z,97043.38
2023-06-25T03:34:06.191Z,97047.22
2023-06-25T03:36:32.940Z,97035.78
2023-06-25T03:38:59.587Z,97040.69
2023-06-25T03:41:26.169Z,97038.22
2023-06-25T03:43:52.770Z,97040.69
2023-06-25T03:46:19.368Z,97036.84
2023-06-25T03:48:46.073Z,97039.31
2023-06-25T03:51:12.865Z,97042.31
2023-06-25T03:53:39.744Z,97040.16
2023-06-25T03:56:06.409Z,97043.13
2023-06-25T03:58:34.332Z,97044.78
2023-06-25T04:01:01.308Z,97039.56
2023-06-25T04:03:28.039Z,97039.88
2023-06-25T04:05:54.692Z,97035.78
2023-06-25T04:08:21.296Z,97037.97
2023-06-25T04:10:48.005Z,97042.59
2023-06-25T04:13:14.626Z,97040.69
2023-06-25T04:15:41.352Z,97045.03
2023-06-25T04:18:07.981Z,97036.06
2023-06-25T04:20:34.612Z,97033.59
2023-06-25T04:23:01.279Z,97033.88
2023-06-25T04:25:27.908Z,97042.03
2023-06-25T04:27:55.240Z,97035.50
2023-06-25T04:30:21.875Z,97034.69
2023-06-25T04:32:48.506Z,97034.94
2023-06-25T04:35:15.182Z,97043.94
2023-06-25T04:37:41.811Z,97037.69
2023-06-25T04:40:08.947Z,97040.66
2023-06-25T04:42:35.776Z,97035.78
2023-06-25T04:45:02.400Z,97037.94
2023-06-25T04:47:29.143Z,97040.13
2023-06-25T04:49:55.760Z,97037.66
2023-06-25T04:52:22.366Z,97034.38
2023-06-25T04:54:48.973Z,97038.19
2023-06-25T04:57:15.899Z,97037.91
2023-06-25T04:59:42.489Z,97038.44
2023-06-25T05:02:09.124Z,97034.91
2023-06-25T05:04:35.779Z,97037.63
2023-06-25T05:07:02.605Z,97034.06
2023-06-25T05:09:29.375Z,97035.69
2023-06-25T05:11:56.083Z,97031.31
2023-06-25T05:14:22.740Z,97035.66
2023-06-25T05:16:49.476Z,97035.94
2023-06-25T05:19:16.236Z,97037.50
2023-06-25T05:21:42.920Z,97034.97
2023-06-25T05:24:09.523Z,97039.06
2023-06-25T05:26:36.189Z,97039.03
2023-06-25T05:29:02.840Z,97046.91
2023-06-25T05:31:29.780Z,97044.94
2023-06-25T05:33:56.427Z,97050.38
2023-06-25T05:36:23.069Z,97050.25
2023-06-25T05:38:51.570Z,97045.59
2023-06-25T05:41:18.425Z,97051.09
2023-06-25T05:43:45.023Z,97054.09
2023-06-25T05:46:11.629Z,97057.84
2023-06-25T05:48:39.084Z,97058.03
2023-06-25T05:51:05.745Z,97063.19
2023-06-25T05:53:38.953Z,97071.91
2023-06-25T05:56:05.930Z,97066.38
2023-06-25T05:58:33.281Z,97069.66
2023-06-25T06:00:59.928Z,97069.56
2023-06-25T06:03:26.586Z,97072.00
2023-06-25T06:05:54.919Z,97067.28
2023-06-25T06:08:21.589Z,97076.78
2023-06-25T06:10:48.229Z,97073.19
2023-06-25T06:13:14.893Z,97073.94
2023-06-25T06:15:41.681Z,97060.47
2023-06-25T06:18:09.209Z,97069.97
2023-06-25T06:20:35.866Z,97072.38
2023-06-25T06:23:02.507Z,97071.22
2023-06-25T06:25:29.163Z,97067.53
2023-06-25T06:27:55.894Z,97068.00
2023-06-25T06:30:22.790Z,97064.16
2023-06-25T06:32:49.558Z,97068.16
2023-06-25T06:35:16.228Z,97069.75
2023-06-25T06:37:42.912Z,97063.09
2023-06-25T06:40:09.600Z,97065.00
2023-06-25T06:42:36.202Z,97070.66
2023-06-25T06:45:03.158Z,97071.19
2023-06-25T06:47:29.860Z,97071.44
2023-06-25T06:49:56.482Z,97072.72
2023-06-25T06:52:25.082Z,97072.72
2023-06-25T06:54:51.721Z,97071.63
2023-06-25T06:57:18.438Z,97075.13
2023-06-25T06:59:47.863Z,97066.63
2023-06-25T07:02:14.588Z,97065.22
2023-06-25T07:04:41.255Z,97059.38
2023-06-25T07:07:07.949Z,97068.72
2023-06-25T07:09:34.617Z,97064.84
2023-06-25T07:12:01.230Z,97067.38
2023-06-25T07:14:27.865Z,97069.28
2023-06-25T07:16:54.583Z,97067.06
2023-06-25T07:19:21.231Z,97062.63
2023-06-25T07:21:47.817Z,97073.06
2023-06-25T07:24:14.457Z,97068.06
2023-06-25T07:26:41.103Z,97068.88
2023-06-25T07:29:07.715Z,97065.56
2023-06-25T07:31:34.306Z,97068.59
2023-06-25T07:34:00.988Z,97063.91
2023-06-25T07:36:27.587Z,97061.41
2023-06-25T07:38:57.726Z,97067.91
2023-06-25T07:41:24.356Z,97066.31
2023-06-25T07:43:51.028Z,97077.09
2023-06-25T07:46:17.868Z,97065.56
2023-06-25T07:48:44.512Z,97075.94
2023-06-25T07:51:11.128Z,97076.97
2023-06-25T07:53:37.760Z,97077.19
2023-06-25T07:56:05.135Z,97073.56
2023-06-25T07:58:32.067Z,97076.94
2023-06-25T08:00:58.722Z,97072.50
2023-06-25T08:03:25.558Z,97075.97
2023-06-25T08:05:52.429Z,97072.34
2023-06-25T08:08:19.098Z,97074.22
2023-06-25T08:10:45.776Z,97068.94
2023-06-25T08:13:12.393Z,97069.16
2023-06-25T08:15:39.552Z,97069.44
2023-06-25T08:18:06.443Z,97061.72
2023-06-25T08:20:33.087Z,97057.88
2023-06-25T08:23:00.905Z,97069.28
2023-06-25T08:25:28.081Z,97059.63
2023-06-25T08:27:54.689Z,97065.44
2023-06-25T08:30:21.459Z,97062.56
2023-06-25T08:32:48.279Z,97060.56
2023-06-25T08:35:15.183Z,97057.38
2023-06-25T08:37:42.192Z,97059.00
2023-06-25T08:40:11.577Z,97059.81
2023-06-25T08:42:38.219Z,97061.66
2023-06-25T08:45:05.078Z,97063.13
2023-06-25T08:47:34.324Z,97057.28
2023-06-25T08:50:01.021Z,97063.41
2023-06-25T08:52:27.693Z,97062.88
2023-06-25T08:54:54.548Z,97065.16
2023-06-25T08:57:21.291Z,97064.94
2023-06-25T08:59:47.919Z,97063.22
2023-06-25T09:02:14.605Z,97060.56
2023-06-25T09:04:41.342Z,97062.63
2023-06-25T09:07:08.891Z,97058.56
2023-06-25T09:09:35.662Z,97052.47
2023-06-25T09:12:02.260Z,97054.50
2023-06-25T09:14:30.585Z,97051.91
2023-06-25T09:16:57.255Z,97059.47
2023-06-25T09:19:23.954Z,97061.56
2023-06-25T09:21:50.673Z,97052.75
2023-06-25T09:24:18.396Z,97058.88
2023-06-25T09:26:52.080Z,97048.50
2023-06-25T09:29:20.802Z,97057.78
2023-06-25T09:31:47.989Z,97054.97
2023-06-25T09:34:16.618Z,97047.81
2023-06-25T09:36:43.692Z,97050.66
2023-06-25T09:39:11.538Z,97051.59
2023-06-25T09:41:39.078Z,97050.59
2023-06-25T09:44:06.349Z,97053.84
2023-06-25T09:46:38.771Z,97045.91
2023-06-25T09:49:05.607Z,97048.84
2023-06-25T09:51:35.688Z,97050.47
2023-06-25T09:54:02.779Z,97044.88
2023-06-25T09:56:29.430Z,97041.66
2023-06-25T09:58:56.019Z,97047.53
2023-06-25T10:01:22.766Z,97042.13
2023-06-25T10:03:49.713Z,97043.84
2023-06-25T10:06:16.460Z,97036.00
2023-06-25T10:08:43.096Z,97039.50
2023-06-25T10:11:09.726Z,97037.25
2023-06-25T10:13:40.815Z,97043.44
2023-06-25T10:16:07.514Z,97040.56
2023-06-25T10:18:42.302Z,97034.56
2023-06-25T10:21:08.974Z,97037.25
2023-06-25T10:23:37.189Z,97033.16
2023-06-25T10:26:03.927Z,97039.66
2023-06-25T10:28:34.946Z,97038.41
2023-06-25T10:31:12.524Z,97036.03
2023-06-25T10:33:39.243Z,97035.53
2023-06-25T10:36:07.363Z,97027.78
2023-06-25T10:38:34.005Z,97031.94
2023-06-25T10:41:00.713Z,97030.06
2023-06-25T10:43:27.411Z,97022.31
2023-06-25T10:45:55.119Z,97018.72
2023-06-25T10:48:22.011Z,97020.72
2023-06-25T10:50:48.888Z,97010.06
2023-06-25T10:53:16.784Z,97012.56
2023-06-25T10:55:50.574Z,97002.53
2023-06-25T10:58:18.417Z,97001.78
2023-06-25T11:00:45.409Z,96995.31
2023-06-25T11:03:12.243Z,96995.78
2023-06-25T11:05:40.513Z,96990.09
2023-06-25T11:08:07.094Z,96992.06
2023-06-25T11:10:33.895Z,96988.31
2023-06-25T11:13:00.658Z,96996.91
2023-06-25T11:15:31.706Z,96986.84
2023-06-25T11:17:58.392Z,96991.59
2023-06-25T11:20:28.745Z,96980.94
2023-06-25T11:22:58.375Z,96990.84
2023-06-25T11:25:24.996Z,96995.22
2023-06-25T11:28:10.575Z,96986.50
2023-06-25T11:30:37.331Z,96986.50
2023-06-25T11:33:17.388Z,96981.94
2023-06-25T11:35:44.109Z,96977.41
2023-06-25T11:38:10.787Z,96973.25
2023-06-25T11:40:38.381Z,96964.19
2023-06-25T11:43:05.035Z,96968.03
2023-06-25T11:45:49.564Z,96962.03
2023-06-25T11:48:17.197Z,96956.03
2023-06-25T11:50:44.513Z,96956.84
2023-06-25T11:53:11.309Z,96958.66
2023-06-25T11:55:39.048Z,96956.72
2023-06-25T11:58:05.869Z,96956.59
2023-06-25T12:00:32.543Z,96956.09
2023-06-25T12:02:59.193Z,96963.06
2023-06-25T12:05:25.884Z,96964.69
2023-06-25T12:07:52.519Z,96957.75
2023-06-25T12:10:19.180Z,96956.88
2023-06-25T12:12:46.565Z,96957.72
2023-06-25T12:15:13.249Z,96950.19
2023-06-25T12:17:39.971Z,96946.97
2023-06-25T12:20:06.970Z,96955.72
2023-06-25T12:22:33.767Z,96944.69
2023-06-25T12:25:00.660Z,96940.53
2023-06-25T12:27:27.298Z,96944.59
2023-06-25T12:29:53.972Z,96942.97
2023-06-25T12:32:20.594Z,96942.34
2023-06-25T12:34:47.383Z,96934.69
2023-06-25T12:37:14.094Z,96928.38
2023-06-25T12:39:40.762Z,96935.97
2023-06-25T12:42:07.789Z,96926.09
2023-06-25T12:44:34.413Z,96927.72
2023-06-25T12:47:01.085Z,96923.34
2023-06-25T12:49:27.755Z,96920.13
2023-06-25T12:51:54.380Z,96924.16
2023-06-25T12:54:21.038Z,96917.19
2023-06-25T12:56:47.677Z,96918.47
2023-06-25T12:59:14.732Z,96921.56
2023-06-25T13:01:41.790Z,96919.28
2023-06-25T13:04:08.473Z,96919.94
2023-06-25T13:06:35.149Z,96921.41
2023-06-25T13:09:01.843Z,96916.19
2023-06-25T13:11:28.508Z,96905.50
2023-06-25T13:13:55.200Z,96910.53
2023-06-25T13:16:21.852Z,96905.16
2023-06-25T13:18:48.453Z,96902.56
2023-06-25T13:21:15.031Z,96905.81
2023-06-25T13:23:41.669Z,96898.81
2023-06-25T13:26:08.344Z,96898.53
2023-06-25T13:28:34.963Z,96899.97
2023-06-25T13:31:01.750Z,96901.28
2023-06-25T13:33:30.119Z,96899.00
2023-06-25T13:35:57.079Z,96894.94
2023-06-25T13:38:23.657Z,96898.19
2023-06-25T13:40:50.319Z,96893.13
2023-06-25T13:43:16.925Z,96893.78
2023-06-25T13:45:43.602Z,96887.78
2023-06-25T13:48:10.283Z,96886.13
2023-06-25T13:50:36.976Z,96891.00
2023-06-25T13:53:03.725Z,96887.06
2023-06-25T13:55:30.343Z,96883.47
2023-06-25T13:57:56.959Z,96882.00
2023-06-25T14:00:23.637Z,96881.75
2023-06-25T14:03:02.456Z,96882.13
2023-06-25T14:05:29.486Z,96885.94
2023-06-25T14:07:56.058Z,96883.84
2023-06-25T14:10:22.690Z,96883.03
2023-06-25T14:12:49.385Z,96886.53
2023-06-25T14:15:16.010Z,96875.69
2023-06-25T14:17:42.660Z,96880.81
2023-06-25T14:20:09.584Z,96875.59
2023-06-25T14:22:36.383Z,96874.63
2023-06-25T14:25:03.134Z,96870.41
2023-06-25T14:27:29.764Z,96870.38
2023-06-25T14:29:56.391Z,96859.69
2023-06-25T14:32:23.000Z,96867.41
2023-06-25T14:34:49.690Z,96861.03
2023-06-25T14:37:17.070Z,96867.31
2023-06-25T14:39:43.769Z,96862.34
2023-06-25T14:42:10.472Z,96857.00
2023-06-25T14:44:37.186Z,96855.63
2023-06-25T14:47:03.940Z,96859.84
2023-06-25T14:49:30.805Z,96860.50
2023-06-25T14:51:57.447Z,96856.53
2023-06-25T14:54:24.098Z,96850.88
2023-06-25T14:56:52.320Z,96847.91
2023-06-25T14:59:18.992Z,96847.31
2023-06-25T15:01:45.860Z,96848.50
2023-06-25T15:04:12.861Z,96855.13
2023-06-25T15:06:39.649Z,96845.19
2023-06-25T15:09:06.244Z,96853.56
2023-06-25T15:11:33.197Z,96862.13
2023-06-25T15:13:59.953Z,96850.94
2023-06-25T15:16:27.161Z,96857.66
2023-06-25T15:18:53.827Z,96847.97
2023-06-25T15:21:20.772Z,96850.56
2023-06-25T15:23:47.426Z,96844.41
2023-06-25T15:26:14.248Z,96847.38
2023-06-25T15:28:43.491Z,96847.88
2023-06-25T15:31:10.196Z,96839.56
2023-06-25T15:33:36.873Z,96832.38
2023-06-25T15:36:03.520Z,96831.16
2023-06-25T15:38:30.102Z,96830.31
2023-06-25T15:40:56.675Z,96830.19
2023-06-25T15:43:24.405Z,96825.31
2023-06-25T15:45:51.061Z,96814.59
2023-06-25T15:48:17.729Z,96819.31
2023-06-25T15:50:44.379Z,96812.06
2023-06-25T15:53:10.982Z,96816.13
2023-06-25T15:55:37.624Z,96815.31
2023-06-25T15:58:04.208Z,96818.19
2023-06-25T16:00:30.822Z,96815.59
2023-06-25T16:02:57.500Z,96817.72
2023-06-25T16:05:24.285Z,96816.25
2023-06-25T16:07:50.896Z,96813.41
2023-06-25T16:10:17.526Z,96811.22
2023-06-25T16:12:44.307Z,96819.06
2023-06-25T16:15:10.944Z,96815.31
2023-06-25T16:17:37.577Z,96809.78
2023-06-25T16:20:11.740Z,96812.59
2023-06-25T16:22:39.573Z,96809.16
2023-06-25T16:25:06.527Z,96802.38
2023-06-25T16:27:33.116Z,96814.72
2023-06-25T16:29:59.803Z,96798.34
2023-06-25T16:32:26.591Z,96796.78
2023-06-25T16:34:53.255Z,96794.22
2023-06-25T16:37:19.856Z,96802.97
2023-06-25T16:39:46.434Z,96802.72
2023-06-25T16:42:13.024Z,96799.38
2023-06-25T16:44:39.696Z,96795.81
2023-06-25T16:47:06.308Z,96796.97
2023-06-25T16:49:35.147Z,96803.03
2023-06-25T16:52:01.789Z,96789.34
2023-06-25T16:54:28.503Z,96794.28
2023-06-25T16:56:55.176Z,96795.69
2023-06-25T16:59:21.893Z,96789.13
2023-06-25T17:01:48.586Z,96794.22
2023-06-25T17:04:15.187Z,96786.31
2023-06-25T17:06:41.969Z,96794.59
2023-06-25T17:09:08.580Z,96796.31
2023-06-25T17:11:35.495Z,96797.81
2023-06-25T17:14:02.129Z,96799.75
2023-06-25T17:16:28.794Z,96798.69
2023-06-25T17:18:55.398Z,96799.38
2023-06-25T17:21:22.301Z,96798.28
2023-06-25T17:23:48.889Z,96793.00
2023-06-25T17:26:15.549Z,96805.53
2023-06-25T17:28:42.204Z,96793.75
2023-06-25T17:31:08.854Z,96799.19
2023-06-25T17:33:35.547Z,96804.25
2023-06-25T17:36:02.151Z,96789.09
2023-06-25T17:38:28.818Z,96789.75
2023-06-25T17:40:55.443Z,96787.06
2023-06-25T17:43:22.023Z,96796.50
2023-06-25T17:45:48.751Z,96803.31
2023-06-25T17:48:15.448Z,96797.66
2023-06-25T17:50:42.135Z,96803.19
2023-06-25T17:53:08.804Z,96796.94
2023-06-25T17:55:35.811Z,96796.38
2023-06-25T17:58:03.119Z,96806.34
2023-06-25T18:00:29.869Z,96808.50
2023-06-25T18:02:56.605Z,96803.56
2023-06-25T18:05:23.333Z,96809.16
2023-06-25T18:07:50.098Z,96818.63
2023-06-25T18:10:16.702Z,96816.19
2023-06-25T18:12:43.290Z,96814.28
2023-06-25T18:15:09.998Z,96814.78
2023-06-25T18:17:36.659Z,96812.28
2023-06-25T18:20:03.328Z,96824.81
2023-06-25T18:22:29.994Z,96820.72
2023-06-25T18:24:56.600Z,96824.50
2023-06-25T18:27:23.227Z,96821.41
2023-06-25T18:29:49.910Z,96822.53
2023-06-25T18:32:16.560Z,96819.63
2023-06-25T18:34:43.349Z,96818.72
2023-06-25T18:37:09.955Z,96820.97
2023-06-25T18:39:36.677Z,96818.41
2023-06-25T18:42:03.435Z,96827.34
2023-06-25T18:44:30.040Z,96826.53
2023-06-25T18:46:56.735Z,96828.81
2023-06-25T18:49:23.533Z,96824.25
2023-06-25T18:51:50.306Z,96825.09
2023-06-25T18:54:16.953Z,96833.81
2023-06-25T18:56:43.651Z,96833.66
2023-06-25T18:59:10.365Z,96835.75
2023-06-25T19:01:37.017Z,96833.66
2023-06-25T19:04:03.829Z,96839.63
2023-06-25T19:06:30.643Z,96843.84
2023-06-25T19:08:57.295Z,96839.31
2023-06-25T19:11:23.956Z,96841.22
2023-06-25T19:13:50.607Z,96842.00
2023-06-25T19:16:17.303Z,96845.72
2023-06-25T19:18:43.976Z,96848.59
2023-06-25T19:21:10.607Z,96853.28
2023-06-25T19:23:39.243Z,96857.69
2023-06-25T19:26:06.667Z,96866.56
2023-06-25T19:28:33.327Z,96869.78
2023-06-25T19:31:00.109Z,96868.13
2023-06-25T19:33:26.771Z,96866.13
2023-06-25T19:35:53.418Z,96870.97
2023-06-25T19:38:20.033Z,96870.56
2023-06-25T19:40:46.765Z,96876.50
2023-06-25T19:43:14.245Z,96877.81
2023-06-25T19:45:40.902Z,96883.31
2023-06-25T19:48:07.678Z,96891.69
2023-06-25T19:50:34.432Z,96900.25
2023-06-25T19:53:01.075Z,96902.19
2023-06-25T19:55:27.756Z,96904.75
2023-06-25T19:57:54.398Z,96912.97
2023-06-25T20:00:21.041Z,96923.47
2023-06-25T20:02:47.730Z,96919.03
2023-06-25T20:05:14.704Z,96923.69
2023-06-25T20:07:41.531Z,96928.19
2023-06-25T20:10:08.423Z,96930.44
2023-06-25T20:12:35.122Z,96936.56
2023-06-25T20:15:01.732Z,96944.00
2023-06-25T20:17:28.549Z,96939.31
2023-06-25T20:19:55.242Z,96945.31
2023-06-25T20:22:21.883Z,96938.22
2023-06-25T20:24:48.526Z,96947.22
2023-06-25T20:27:15.112Z,96947.72
2023-06-25T20:29:41.777Z,96942.66
2023-06-25T20:32:08.448Z,96947.84
2023-06-25T20:34:35.210Z,96945.19
2023-06-25T20:37:02.023Z,96947.53
2023-06-25T20:39:28.702Z,96955.50
2023-06-25T20:41:55.409Z,96952.84
2023-06-25T20:44:22.032Z,96948.69
2023-06-25T20:46:48.645Z,96959.03
2023-06-25T20:49:15.293Z,96959.88
2023-06-25T20:51:41.936Z,96957.41
2023-06-25T20:54:08.566Z,96961.50
2023-06-25T20:56:35.206Z,96960.34
2023-06-25T20:59:01.870Z,96965.34
2023-06-25T21:01:28.573Z,96972.25
2023-06-25T21:03:58.499Z,96971.97
2023-06-25T21:06:25.153Z,96969.50
2023-06-25T21:08:51.843Z,96970.22
2023-06-25T21:11:18.436Z,96975.50
2023-06-25T21:13:45.072Z,96976.41
2023-06-25T21:16:11.905Z,96975.41
2023-06-25T21:18:38.495Z,96970.94
2023-06-25T21:21:05.176Z,96976.72
2023-06-25T21:23:31.807Z,96972.94
2023-06-25T21:25:58.441Z,96975.78
2023-06-25T21:28:25.048Z,96970.28
2023-06-25T21:30:51.704Z,96976.41
2023-06-25T21:33:18.325Z,96982.81
2023-06-25T21:35:44.972Z,96976.00
2023-06-25T21:38:11.628Z,96980.97
2023-06-25T21:40:38.710Z,96978.50
2023-06-25T21:43:05.618Z,96974.28
2023-06-25T21:45:32.327Z,96980.59
2023-06-25T21:47:59.016Z,96981.38
2023-06-25T21:50:25.669Z,96985.78
2023-06-25T21:52:52.293Z,96983.03
2023-06-25T21:55:18.921Z,96986.16
2023-06-25T21:57:45.687Z,96981.59
2023-06-25T22:00:12.615Z,96982.38
2023-06-25T22:02:39.579Z,96982.59
2023-06-25T22:05:06.934Z,96988.09
2023-06-25T22:07:33.584Z,96987.34
2023-06-25T22:10:00.273Z,96990.59
2023-06-25T22:12:26.854Z,96991.72
2023-06-25T22:14:53.515Z,96994.69
2023-06-25T22:17:20.455Z,96992.56
2023-06-25T22:19:47.469Z,96993.34
2023-06-25T22:22:14.123Z,96992.31
2023-06-25T22:24:40.799Z,96988.06
2023-06-25T22:27:07.415Z,96991.31
2023-06-25T22:29:41.954Z,96991.16
2023-06-25T22:32:10.022Z,96989.75
2023-06-25T22:34:36.855Z,96993.47
2023-06-25T22:37:03.563Z,96987.97
2023-06-25T22:39:30.153Z,96984.47
2023-06-25T22:41:56.779Z,96989.72
2023-06-25T22:44:23.373Z,96994.16
2023-06-25T22:46:49.961Z,96992.22
2023-06-25T22:49:16.646Z,96991.50
2023-06-25T22:51:43.286Z,96986.03
2023-06-25T22:54:09.909Z,96995.22
2023-06-25T22:56:36.557Z,96999.34
2023-06-25T22:59:03.703Z,96997.56
2023-06-25T23:01:30.381Z,96990.22
2023-06-25T23:03:57.154Z,96990.28
2023-06-25T23:06:24.797Z,97001.31
2023-06-25T23:08:51.439Z,96994.00
2023-06-25T23:11:18.084Z,96993.53
2023-06-25T23:13:44.729Z,96998.25
2023-06-25T23:16:11.347Z,96997.75
2023-06-25T23:18:38.481Z,97000.19
2023-06-25T23:21:05.601Z,97004.63
2023-06-25T23:23:32.624Z,97000.03
2023-06-25T23:25:59.777Z,96999.13
2023-06-25T23:28:27.305Z,97006.31
2023-06-25T23:30:53.977Z,97008.00
2023-06-25T23:33:20.684Z,97009.75
2023-06-25T23:35:47.403Z,97017.44
2023-06-25T23:38:14.094Z,97003.47
2023-06-25T23:40:40.914Z,97015.75
2023-06-25T23:43:07.634Z,97012.81
2023-06-25T23:45:34.260Z,97012.81
2023-06-25T23:48:01.052Z,97013.66
2023-06-25T23:50:27.775Z,97002.75
2023-06-25T23:52:54.472Z,97011.50
2023-06-25T23:55:21.169Z,97006.53
2023-06-25T23:57:47.773Z,97012.31
